Terminal Aerodrome Forecast
Issued by NWS

Home | Current Version | Previous Version | Text Only | Print | Product List | Glossary On
Versions: 1 2 3 4 5 6 7 8 9 10 11 12 13 14 15 16 17
719
FTUS41 KBTV 281732
TAFRUT
TAF
KRUT 281732Z 2818/2918 13008KT P6SM VCSH SCT025 BKN050
      TEMPO 2818/2821 5SM -SHRA BR BKN025
     FM282100 VRB06KT 5SM -SHRA BR OVC015
     FM290200 VRB03KT P6SM VCSH OVC015
     FM290600 32004KT P6SM OVC030
     FM291200 32008KT P6SM BKN040=

USA.gov is the U.S. government's official web portal to all federal, state and local government web resources and services.